Playa Del Carmen, ROO, Mexico
Current Conditions -  °F | °C
As of 9:43 PM on Sunday 21 Dec 2014 (Local Time) from MMCZ Reporting Station
Few Clouds Few Clouds  
Wind Chill: 68°   Ceiling: Unl
Heat Index: 68°   Visibility: 7mi
Dew Point: 68°   Wind: 0mph
Humidity: 100%   Direction: NA
Pressure: 29.99"   Gusts: NA
Location:  20.62°N, 87.07°W
Report Text: MMCZ 220343Z 00000KT 7SM FEW015 20/20 A2999 RMK 8/500 RTS
Loading
Personal Weather Stations






























Interactive Weather Map New forecast layout! Learn more

10-Day Weather Forecast

Advertisements
Track Severe Weather on mobile